Time;durP1;ratioP1;P1;durP2;ratioP2;P2;SDS_P1;SDS_P2;PMS_P1;PMS_P2;Temp;Humidity;BMP_temperature;BMP_pressure;BME280_temperature;BME280_humidity;BME280_pressure;Samples;Min_cycle;Max_cycle;Signal;HPM_P1;HPM_P2
2022/11/24 00:01:10;;;;;;;6.00;2.10;;;9.30;99.90;;;;;;5016086;28;20256;-73
2022/11/24 00:03:36;;;;;;;8.95;2.17;;;9.30;99.90;;;;;;5015299;28;20902;-73
2022/11/24 00:06:06;;;;;;;5.25;1.95;;;9.30;99.90;;;;;;4999422;28;20240;-73
2022/11/24 00:08:32;;;;;;;6.93;1.35;;;9.30;99.90;;;;;;5015197;28;20166;-74
2022/11/24 00:11:06;;;;;;;8.20;2.05;;;9.30;99.90;;;;;;5015318;28;20236;-73
2022/11/24 00:13:33;;;;;;;9.68;1.92;;;9.30;99.90;;;;;;5014809;28;20195;-73
2022/11/24 00:16:14;;;;;;;9.38;2.05;;;9.40;99.90;;;;;;5032850;28;20196;-75
2022/11/24 00:18:41;;;;;;;11.68;2.05;;;9.30;99.90;;;;;;5033414;28;20594;-72
2022/11/24 00:21:07;;;;;;;6.47;2.03;;;9.40;99.90;;;;;;5032725;28;20201;-72
2022/11/24 00:23:33;;;;;;;13.63;2.97;;;9.40;99.90;;;;;;5032432;28;20212;-73
2022/11/24 00:26:04;;;;;;;6.03;1.50;;;9.40;99.90;;;;;;5014371;28;21375;-73
2022/11/24 00:28:31;;;;;;;8.25;2.53;;;9.40;99.90;;;;;;5014973;28;20300;-72
2022/11/24 00:30:57;;;;;;;7.68;1.42;;;9.40;99.90;;;;;;5032275;28;20642;-72
2022/11/24 00:33:23;;;;;;;7.90;3.20;;;9.50;99.90;;;;;;5032184;28;20193;-73
2022/11/24 00:35:59;;;;;;;9.33;1.70;;;9.50;99.90;;;;;;5032062;28;20603;-73
2022/11/24 00:38:26;;;;;;;9.07;1.58;;;9.40;99.90;;;;;;5014670;28;20208;-72
2022/11/24 00:40:51;;;;;;;8.45;2.03;;;9.50;99.90;;;;;;5032009;28;20302;-73
2022/11/24 00:43:18;;;;;;;6.73;1.90;;;9.50;99.90;;;;;;5031934;28;20245;-73
2022/11/24 00:45:44;;;;;;;9.70;2.03;;;9.50;99.90;;;;;;5031775;28;20710;-73
2022/11/24 00:48:10;;;;;;;17.73;2.67;;;9.50;99.90;;;;;;5032184;28;20308;-73
2022/11/24 00:50:36;;;;;;;10.73;2.00;;;9.50;99.90;;;;;;5031983;28;20556;-73
2022/11/24 00:53:02;;;;;;;12.80;2.20;;;9.50;99.90;;;;;;5032062;28;21009;-73
2022/11/24 00:55:27;;;;;;;16.90;2.70;;;9.60;99.90;;;;;;5031700;28;21179;-73
2022/11/24 00:57:53;;;;;;;8.80;1.70;;;9.60;99.90;;;;;;5031150;28;20222;-73
2022/11/24 01:00:19;;;;;;;6.00;2.33;;;9.60;99.90;;;;;;5031251;28;20177;-73
2022/11/24 01:02:45;;;;;;;13.07;2.23;;;9.60;99.90;;;;;;5013924;28;20564;-74
2022/11/24 01:05:11;;;;;;;9.40;1.83;;;9.60;99.90;;;;;;5012047;28;20651;-73
2022/11/24 01:07:36;;;;;;;9.10;1.50;;;9.60;99.90;;;;;;5031545;28;20296;-74
2022/11/24 01:10:02;;;;;;;7.80;1.67;;;9.60;99.90;;;;;;5031904;28;20507;-73
2022/11/24 01:12:28;;;;;;;9.00;2.85;;;9.60;99.90;;;;;;5031491;28;20178;-74
2022/11/24 01:14:54;;;;;;;6.90;1.50;;;9.70;99.90;;;;;;5014622;28;20546;-73
2022/11/24 01:17:20;;;;;;;10.63;2.10;;;9.70;99.90;;;;;;5031847;28;20197;-74
2022/11/24 01:19:47;;;;;;;7.33;1.70;;;9.70;99.90;;;;;;5032090;28;20553;-74
2022/11/24 01:22:13;;;;;;;7.18;2.10;;;9.70;99.90;;;;;;5031400;28;20172;-74
2022/11/24 01:24:39;;;;;;;11.32;3.35;;;9.70;99.90;;;;;;5032037;28;20197;-74
2022/11/24 01:27:05;;;;;;;9.43;2.05;;;9.80;99.90;;;;;;5031878;28;20208;-73
2022/11/24 01:29:31;;;;;;;9.90;1.70;;;9.80;99.90;;;;;;5031890;28;20522;-73
2022/11/24 01:31:57;;;;;;;7.23;1.57;;;9.80;99.90;;;;;;5013162;28;20580;-74
2022/11/24 01:34:23;;;;;;;4.47;1.70;;;9.90;99.90;;;;;;5031453;28;20596;-73
2022/11/24 01:36:49;;;;;;;7.60;1.53;;;10.00;99.90;;;;;;5031334;28;20166;-73
2022/11/24 01:39:15;;;;;;;5.50;2.00;;;10.10;99.90;;;;;;4997093;28;20600;-73
2022/11/24 01:41:40;;;;;;;5.60;1.50;;;10.10;99.90;;;;;;5031157;28;20227;-73
2022/11/24 01:44:27;;;;;;;10.40;2.27;;;10.20;99.90;;;;;;5030984;28;20604;-73
2022/11/24 01:47:11;;;;;;;7.38;1.70;;;10.30;99.90;;;;;;5030878;28;20674;-73
2022/11/24 01:49:46;;;;;;;13.02;1.90;;;10.30;99.90;;;;;;5030887;28;20161;-73
2022/11/24 01:52:19;;;;;;;9.15;2.10;;;10.30;99.90;;;;;;5030823;28;20180;-73
2022/11/24 01:54:53;;;;;;;7.75;1.85;;;10.30;99.90;;;;;;5012966;28;20602;-73
2022/11/24 01:57:33;;;;;;;10.95;1.50;;;10.30;99.90;;;;;;5030914;28;20299;-73
2022/11/24 02:00:03;;;;;;;5.85;1.33;;;10.20;99.90;;;;;;5030753;28;20335;-73
2022/11/24 02:02:41;;;;;;;9.88;1.38;;;10.20;99.90;;;;;;5030770;28;20280;-73
2022/11/24 02:05:22;;;;;;;9.70;1.45;;;10.20;99.90;;;;;;5030326;28;20193;-73
2022/11/24 02:07:49;;;;;;;6.40;2.00;;;10.20;99.90;;;;;;5030669;28;20201;-73
2022/11/24 02:10:15;;;;;;;4.07;1.52;;;10.20;99.90;;;;;;5012376;28;20526;-73
2022/11/24 02:12:45;;;;;;;5.13;1.40;;;10.20;99.90;;;;;;5030423;28;20174;-73
2022/11/24 02:15:12;;;;;;;11.45;2.50;;;10.30;99.90;;;;;;5030135;28;20186;-73
2022/11/24 02:17:38;;;;;;;8.60;2.47;;;10.20;99.90;;;;;;5030598;28;20227;-73
2022/11/24 02:20:07;;;;;;;15.83;3.57;;;10.30;99.90;;;;;;5030400;28;20256;-73
2022/11/24 02:23:12;;;;;;;8.35;1.80;;;10.30;99.90;;;;;;5030232;28;20251;-73
2022/11/24 02:26:09;;;;;;;9.25;2.30;;;10.30;99.90;;;;;;5030125;28;20248;-74
2022/11/24 02:28:36;;;;;;;7.72;1.80;;;10.40;99.90;;;;;;5030482;28;20177;-73
2022/11/24 02:31:03;;;;;;;6.82;2.03;;;10.40;99.90;;;;;;5012295;28;20204;-74
2022/11/24 02:33:29;;;;;;;9.25;2.40;;;10.50;99.90;;;;;;5012479;28;20181;-73
2022/11/24 02:35:55;;;;;;;6.78;2.03;;;10.50;99.90;;;;;;5029821;28;20185;-73
2022/11/24 02:38:31;;;;;;;17.47;2.90;;;10.50;99.90;;;;;;5030388;28;20169;-73
2022/11/24 02:41:01;;;;;;;12.80;2.40;;;10.50;99.90;;;;;;5030003;28;20169;-73
2022/11/24 02:43:31;;;;;;;7.63;2.05;;;10.60;99.90;;;;;;4995850;28;20194;-73
2022/11/24 02:45:57;;;;;;;9.13;2.50;;;10.60;99.90;;;;;;5029635;28;20212;-73
2022/11/24 02:48:23;;;;;;;9.40;2.72;;;10.60;99.90;;;;;;5030189;28;20222;-74
2022/11/24 02:50:49;;;;;;;9.73;1.93;;;10.60;99.90;;;;;;5029812;28;20170;-73
2022/11/24 02:53:15;;;;;;;10.07;2.57;;;10.50;99.90;;;;;;5012108;28;20177;-73
2022/11/24 02:55:41;;;;;;;9.57;2.03;;;10.50;99.90;;;;;;5029620;28;20220;-73
2022/11/24 02:58:07;;;;;;;9.83;3.10;;;10.50;99.90;;;;;;5029971;28;20650;-73
2022/11/24 03:00:32;;;;;;;7.30;1.63;;;10.50;99.90;;;;;;5029484;28;20170;-73
2022/11/24 03:02:58;;;;;;;9.23;1.80;;;10.40;99.90;;;;;;5029581;28;20177;-73
2022/11/24 03:05:25;;;;;;;12.97;2.10;;;10.40;99.90;;;;;;5029575;28;20244;-73
2022/11/24 03:07:51;;;;;;;4.80;2.08;;;10.40;99.90;;;;;;5029669;28;20648;-73
2022/11/24 03:10:16;;;;;;;7.93;2.33;;;10.40;99.90;;;;;;5029837;28;20222;-73
2022/11/24 03:12:42;;;;;;;11.33;2.07;;;10.40;99.90;;;;;;5029776;28;20166;-74
2022/11/24 03:15:08;;;;;;;7.17;1.90;;;10.40;99.90;;;;;;5029760;28;20184;-74
2022/11/24 03:17:34;;;;;;;8.73;1.52;;;10.50;99.90;;;;;;5011820;28;20580;-73
2022/11/24 03:20:01;;;;;;;10.83;2.33;;;10.50;99.90;;;;;;5029791;28;20260;-73
2022/11/24 03:22:27;;;;;;;8.00;1.63;;;10.50;99.90;;;;;;5028270;28;21356;-73
2022/11/24 03:24:53;;;;;;;11.50;2.47;;;10.50;99.90;;;;;;5029576;28;20225;-74
2022/11/24 03:27:19;;;;;;;8.00;1.70;;;10.60;99.90;;;;;;5029274;28;20228;-74
2022/11/24 03:29:45;;;;;;;11.23;2.05;;;10.60;99.90;;;;;;5029609;28;20572;-74
2022/11/24 03:32:11;;;;;;;7.50;1.70;;;10.60;99.90;;;;;;5011203;28;20176;-73
2022/11/24 03:34:37;;;;;;;6.67;1.83;;;10.60;99.90;;;;;;5029497;28;20607;-73
2022/11/24 03:37:02;;;;;;;11.30;2.10;;;10.60;99.90;;;;;;5029261;28;20166;-73
2022/11/24 03:39:28;;;;;;;9.30;2.30;;;10.60;99.90;;;;;;5012333;28;20166;-73
2022/11/24 03:41:54;;;;;;;7.10;1.60;;;10.70;99.90;;;;;;5029260;28;20913;-74
2022/11/24 03:44:20;;;;;;;8.37;2.13;;;10.70;99.90;;;;;;5029217;28;20201;-73
2022/11/24 03:46:46;;;;;;;3.70;1.70;;;10.70;99.90;;;;;;5029358;28;20562;-74
2022/11/24 03:49:11;;;;;;;8.73;2.00;;;10.70;99.90;;;;;;5029198;28;20192;-73
2022/11/24 03:51:37;;;;;;;15.83;2.77;;;10.70;99.90;;;;;;5029422;28;20265;-73
2022/11/24 03:54:03;;;;;;;9.33;1.67;;;10.70;99.90;;;;;;5029180;28;20193;-73
2022/11/24 03:56:29;;;;;;;5.60;1.67;;;10.70;99.90;;;;;;5026830;28;20208;-73
2022/11/24 03:58:55;;;;;;;12.73;2.70;;;10.70;99.90;;;;;;5029050;28;20580;-74
2022/11/24 04:01:21;;;;;;;7.53;1.70;;;10.70;99.90;;;;;;5004018;28;20175;-73
2022/11/24 04:03:47;;;;;;;7.00;1.90;;;10.70;99.90;;;;;;5009027;28;20169;-74
2022/11/24 04:06:12;;;;;;;12.53;2.70;;;10.70;99.90;;;;;;5009389;28;20756;-73
2022/11/24 04:08:38;;;;;;;5.20;1.70;;;10.70;99.90;;;;;;4992123;28;20166;-74
2022/11/24 04:11:04;;;;;;;9.37;2.10;;;10.70;99.90;;;;;;5009646;28;20166;-73
2022/11/24 04:13:30;;;;;;;8.30;2.27;;;10.70;99.90;;;;;;5009152;28;20177;-73
2022/11/24 04:15:55;;;;;;;9.13;2.10;;;10.70;99.90;;;;;;5009349;28;20597;-73
2022/11/24 04:18:21;;;;;;;6.87;1.80;;;10.70;99.90;;;;;;5009435;28;20522;-74
2022/11/24 04:20:51;;;;;;;11.80;2.07;;;10.70;99.90;;;;;;5008254;28;20178;-73
2022/11/24 04:23:17;;;;;;;12.50;2.22;;;10.70;99.90;;;;;;5009384;28;20643;-73
2022/11/24 04:25:42;;;;;;;7.70;2.50;;;10.70;99.90;;;;;;5009336;28;20565;-73
2022/11/24 04:28:10;;;;;;;8.35;2.13;;;10.80;99.90;;;;;;5009462;28;20210;-74
2022/11/24 04:30:37;;;;;;;6.97;1.80;;;10.80;99.90;;;;;;4991591;28;20523;-73
2022/11/24 04:33:03;;;;;;;8.32;2.05;;;10.80;99.90;;;;;;5010383;28;20630;-73
2022/11/24 04:35:29;;;;;;;10.80;1.77;;;10.80;99.90;;;;;;5012608;28;20197;-73
2022/11/24 04:37:54;;;;;;;7.47;2.03;;;10.80;99.90;;;;;;5012869;28;20673;-73
2022/11/24 04:40:20;;;;;;;11.00;2.33;;;10.80;99.90;;;;;;4995231;28;20178;-73
2022/11/24 04:42:53;;;;;;;8.90;1.90;;;10.90;99.90;;;;;;5012709;28;20701;-73
2022/11/24 04:45:19;;;;;;;9.45;1.88;;;10.90;99.90;;;;;;5012326;28;20194;-73
2022/11/24 04:47:45;;;;;;;20.17;2.63;;;11.00;99.90;;;;;;5012946;28;20213;-74
2022/11/24 04:50:11;;;;;;;11.20;2.10;;;11.00;99.90;;;;;;5012716;28;20657;-73
2022/11/24 04:52:37;;;;;;;8.47;2.70;;;11.00;99.90;;;;;;5012370;28;20258;-73
2022/11/24 04:55:02;;;;;;;9.90;2.73;;;11.10;99.90;;;;;;4994681;28;20617;-73
2022/11/24 04:57:28;;;;;;;8.23;2.03;;;11.10;99.90;;;;;;4994800;28;20254;-73
2022/11/24 04:59:54;;;;;;;12.93;2.50;;;11.20;99.90;;;;;;4994829;28;20182;-73
2022/11/24 05:02:20;;;;;;;7.07;1.43;;;11.20;99.90;;;;;;5011948;28;20190;-74
2022/11/24 05:04:46;;;;;;;8.25;2.00;;;11.20;99.90;;;;;;4994922;28;20805;-73
2022/11/24 05:07:13;;;;;;;8.43;1.70;;;11.20;99.90;;;;;;5012187;28;20255;-73
2022/11/24 05:10:33;;;;;;;9.05;1.75;;;11.30;99.90;;;;;;4994796;28;20600;-73
2022/11/24 05:12:30;;;;;;;9.75;1.80;;;11.30;99.90;;;;;;5011789;28;20194;-74
2022/11/24 05:15:01;;;;;;;7.72;1.77;;;11.30;99.90;;;;;;5011871;28;20186;-74
2022/11/24 05:17:31;;;;;;;10.05;2.33;;;11.30;99.90;;;;;;5011531;28;20835;-74
2022/11/24 05:19:57;;;;;;;10.07;2.80;;;11.30;99.90;;;;;;5011856;28;20175;-74
2022/11/24 05:22:23;;;;;;;7.43;1.60;;;11.40;99.90;;;;;;5011019;28;20216;-74
2022/11/24 05:24:49;;;;;;;12.50;2.77;;;11.40;99.90;;;;;;4994110;28;20642;-73
2022/11/24 05:27:14;;;;;;;9.13;2.43;;;11.30;99.90;;;;;;5011251;28;20711;-74
2022/11/24 05:29:40;;;;;;;9.53;1.80;;;11.30;99.90;;;;;;5011840;28;20508;-73
2022/11/24 05:32:06;;;;;;;13.10;2.40;;;11.30;99.90;;;;;;5012088;28;20162;-73
2022/11/24 05:34:32;;;;;;;8.13;2.17;;;11.30;99.90;;;;;;5012609;28;20210;-73
2022/11/24 05:37:03;;;;;;;7.03;2.47;;;11.40;99.90;;;;;;4995128;28;20166;-74
2022/11/24 05:39:33;;;;;;;8.10;2.25;;;11.40;99.90;;;;;;5012760;28;20257;-73
2022/11/24 05:42:39;;;;;;;7.32;1.73;;;11.40;99.90;;;;;;4993975;28;20810;-73
2022/11/24 05:44:47;;;;;;;7.05;2.13;;;11.40;99.90;;;;;;5010850;28;20593;-73
2022/11/24 05:47:13;;;;;;;8.60;2.20;;;11.40;99.90;;;;;;5011673;28;20205;-73
2022/11/24 05:49:38;;;;;;;10.30;2.80;;;11.40;99.90;;;;;;5010352;28;20175;-72
2022/11/24 05:52:04;;;;;;;14.07;2.90;;;11.40;99.90;;;;;;5011234;28;20669;-73
2022/11/24 05:54:30;;;;;;;7.03;1.93;;;11.40;99.90;;;;;;5010844;28;20190;-73
2022/11/24 05:56:56;;;;;;;10.73;3.20;;;11.40;99.90;;;;;;5011022;28;20225;-74
2022/11/24 05:59:21;;;;;;;11.10;3.20;;;11.40;99.90;;;;;;5011100;28;20615;-73
2022/11/24 06:01:47;;;;;;;10.13;2.10;;;11.30;99.90;;;;;;5011288;28;20260;-74
2022/11/24 06:04:13;;;;;;;7.57;1.27;;;11.30;99.90;;;;;;5011042;28;20178;-74
2022/11/24 06:06:39;;;;;;;7.70;1.87;;;11.30;99.90;;;;;;5011852;28;20633;-73
2022/11/24 06:09:04;;;;;;;5.33;1.50;;;11.30;99.90;;;;;;5014337;28;20631;-73
2022/11/24 06:11:30;;;;;;;7.33;1.50;;;11.20;99.90;;;;;;5010883;28;20166;-73
2022/11/24 06:13:56;;;;;;;8.43;1.57;;;11.20;99.90;;;;;;5010902;28;20200;-73
2022/11/24 06:16:21;;;;;;;5.37;1.37;;;11.20;99.90;;;;;;5011030;28;20190;-73
2022/11/24 06:18:47;;;;;;;6.53;1.07;;;11.20;99.90;;;;;;5010842;28;20662;-73
2022/11/24 06:21:13;;;;;;;5.60;1.63;;;11.10;99.90;;;;;;5010670;28;20158;-73
2022/11/24 06:23:39;;;;;;;6.20;1.53;;;11.10;99.90;;;;;;5010258;28;20285;-73
2022/11/24 06:26:05;;;;;;;4.53;1.10;;;11.10;99.90;;;;;;5010554;28;20221;-74
2022/11/24 06:28:31;;;;;;;6.83;1.93;;;11.00;99.90;;;;;;5010530;28;20263;-74
2022/11/24 06:31:04;;;;;;;4.90;1.02;;;11.00;99.90;;;;;;4992738;28;20688;-74
2022/11/24 06:33:34;;;;;;;8.00;1.58;;;11.00;99.90;;;;;;5010187;28;20251;-74
2022/11/24 06:36:03;;;;;;;3.80;1.33;;;11.00;99.90;;;;;;5010201;28;20726;-74
2022/11/24 06:38:30;;;;;;;4.18;1.45;;;10.90;99.90;;;;;;4992711;28;20183;-74
2022/11/24 06:41:05;;;;;;;3.65;1.25;;;10.90;99.90;;;;;;5009972;28;20163;-74
2022/11/24 06:43:31;;;;;;;9.20;1.45;;;10.90;99.90;;;;;;4992429;28;20260;-74
2022/11/24 06:45:57;;;;;;;5.25;1.00;;;10.90;99.90;;;;;;4992223;28;20214;-74
2022/11/24 06:48:24;;;;;;;4.93;1.20;;;10.90;99.90;;;;;;5010132;28;20263;-74
2022/11/24 06:50:51;;;;;;;7.68;1.38;;;10.90;99.90;;;;;;4992241;28;20575;-74
2022/11/24 06:53:17;;;;;;;4.50;1.10;;;10.80;99.90;;;;;;4992209;28;20182;-74
2022/11/24 06:55:44;;;;;;;4.30;1.88;;;10.80;99.90;;;;;;4992043;28;20831;-74
2022/11/24 06:58:09;;;;;;;6.38;1.23;;;10.80;99.90;;;;;;5008822;28;20174;-74
2022/11/24 07:00:36;;;;;;;4.17;1.37;;;10.90;99.90;;;;;;4992273;28;20696;-74
2022/11/24 07:03:02;;;;;;;3.08;0.90;;;10.80;99.90;;;;;;5009800;28;20177;-74
2022/11/24 07:05:27;;;;;;;5.10;1.10;;;10.90;99.90;;;;;;5008383;28;20721;-74
2022/11/24 07:07:53;;;;;;;5.03;1.43;;;10.90;99.90;;;;;;4995807;28;20197;-74
2022/11/24 07:10:19;;;;;;;7.97;1.53;;;10.90;99.90;;;;;;5021395;28;20565;-74
2022/11/24 07:12:45;;;;;;;4.30;1.03;;;10.90;99.90;;;;;;5025853;28;20181;-74
2022/11/24 07:15:11;;;;;;;2.63;0.90;;;10.80;99.90;;;;;;5000197;28;20605;-74
2022/11/24 07:17:37;;;;;;;2.10;0.90;;;10.80;99.90;;;;;;5027260;28;20965;-74
2022/11/24 07:20:05;;;;;;;2.45;0.95;;;10.80;99.90;;;;;;5029512;28;20166;-74
2022/11/24 07:22:30;;;;;;;2.88;0.90;;;10.70;99.90;;;;;;5029230;28;20185;-74
2022/11/24 07:24:56;;;;;;;3.57;0.90;;;10.70;99.90;;;;;;5012698;28;20194;-73
2022/11/24 07:27:22;;;;;;;2.13;0.80;;;10.60;99.90;;;;;;5029971;28;20556;-74
2022/11/24 07:29:48;;;;;;;3.90;0.90;;;10.60;99.90;;;;;;5030139;28;20564;-73
2022/11/24 07:32:13;;;;;;;4.10;1.30;;;10.50;99.90;;;;;;5030004;28;20255;-74
2022/11/24 07:34:39;;;;;;;2.90;1.00;;;10.50;99.90;;;;;;5013008;28;20225;-74
2022/11/24 07:37:05;;;;;;;3.43;0.90;;;10.50;99.90;;;;;;5031325;28;20224;-74
2022/11/24 07:39:31;;;;;;;2.20;0.70;;;10.40;99.90;;;;;;5013755;28;20599;-74
2022/11/24 07:41:59;;;;;;;5.73;1.00;;;10.40;99.90;;;;;;5029568;28;20638;-73
2022/11/24 07:44:25;;;;;;;3.08;0.82;;;10.30;99.90;;;;;;5011864;28;20169;-74
2022/11/24 07:46:52;;;;;;;2.75;0.80;;;10.30;99.90;;;;;;5011731;28;20624;-73
2022/11/24 07:49:18;;;;;;;4.22;0.77;;;10.30;99.90;;;;;;5029350;28;20184;-73
2022/11/24 07:51:44;;;;;;;3.45;0.93;;;10.40;99.90;;;;;;5029441;28;20584;-73
2022/11/24 07:54:10;;;;;;;6.32;0.90;;;10.40;99.90;;;;;;5029071;28;20281;-73
2022/11/24 07:56:36;;;;;;;4.68;1.10;;;10.40;99.90;;;;;;5029379;28;20231;-74
2022/11/24 07:59:02;;;;;;;2.00;0.83;;;10.40;99.90;;;;;;5011359;28;20181;-73
2022/11/24 08:01:28;;;;;;;3.00;1.05;;;10.50;99.90;;;;;;5029154;28;20569;-73
2022/11/24 08:03:54;;;;;;;3.60;1.10;;;10.50;99.90;;;;;;5028964;28;20193;-73
2022/11/24 08:06:20;;;;;;;2.63;0.90;;;10.60;99.90;;;;;;4994973;28;20731;-73
2022/11/24 08:08:46;;;;;;;2.53;0.80;;;10.60;99.90;;;;;;5031253;28;20188;-73
2022/11/24 08:11:15;;;;;;;2.50;1.13;;;10.70;99.90;;;;;;5033111;28;20818;-73
2022/11/24 08:13:41;;;;;;;2.40;0.90;;;10.70;99.90;;;;;;5032574;28;20181;-73
2022/11/24 08:16:09;;;;;;;2.60;1.13;;;10.80;99.90;;;;;;5015232;28;20189;-74
2022/11/24 08:18:36;;;;;;;2.97;0.93;;;10.90;99.90;;;;;;5032867;28;20170;-74
2022/11/24 08:21:02;;;;;;;3.25;1.00;;;10.90;99.90;;;;;;5032953;28;20166;-73
2022/11/24 08:23:29;;;;;;;4.13;1.00;;;10.90;99.90;;;;;;5015587;28;20696;-74
2022/11/24 08:25:55;;;;;;;10.18;1.50;;;11.00;99.90;;;;;;5034243;28;20232;-74
2022/11/24 08:28:22;;;;;;;6.32;1.52;;;11.00;99.90;;;;;;5016288;28;20267;-74
2022/11/24 08:30:48;;;;;;;2.65;0.98;;;11.10;99.90;;;;;;5039919;28;20176;-74
2022/11/24 08:33:14;;;;;;;3.30;0.90;;;11.10;99.90;;;;;;5045831;28;20162;-74
2022/11/24 08:35:40;;;;;;;3.87;0.97;;;11.20;99.90;;;;;;5046478;28;20181;-74
2022/11/24 08:38:05;;;;;;;4.10;0.83;;;11.30;99.90;;;;;;5044486;28;20576;-74
2022/11/24 08:40:31;;;;;;;2.87;0.90;;;11.30;99.90;;;;;;5043822;28;20196;-74
2022/11/24 08:42:58;;;;;;;4.18;1.15;;;11.40;99.90;;;;;;5024555;28;20174;-73
2022/11/24 08:45:25;;;;;;;9.85;1.00;;;11.40;99.90;;;;;;5016885;28;20257;-74
2022/11/24 08:47:55;;;;;;;4.72;1.60;;;11.50;99.90;;;;;;5014355;28;20209;-73
2022/11/24 08:50:23;;;;;;;3.72;0.90;;;11.60;99.90;;;;;;5013752;28;20170;-74
2022/11/24 08:52:51;;;;;;;5.55;1.20;;;11.70;99.90;;;;;;5013642;28;20237;-73
2022/11/24 08:55:17;;;;;;;6.75;1.23;;;11.80;99.90;;;;;;5013621;28;20194;-74
2022/11/24 08:57:43;;;;;;;2.63;0.82;;;11.80;99.90;;;;;;4995476;28;20178;-73
2022/11/24 09:00:10;;;;;;;4.37;1.20;;;11.90;99.90;;;;;;5012620;28;20181;-73
2022/11/24 09:02:36;;;;;;;5.63;0.90;;;12.00;99.90;;;;;;4962708;28;20174;-73
2022/11/24 09:05:02;;;;;;;5.50;1.50;;;12.10;99.90;;;;;;5012636;28;20186;-73
2022/11/24 09:07:27;;;;;;;4.47;1.37;;;12.20;99.90;;;;;;5012255;28;20198;-73
2022/11/24 09:09:53;;;;;;;7.13;1.57;;;12.30;99.90;;;;;;5012516;28;20569;-73
2022/11/24 09:12:19;;;;;;;4.93;1.30;;;12.40;99.90;;;;;;5011929;28;20163;-73
2022/11/24 09:14:44;;;;;;;6.07;1.83;;;12.60;99.90;;;;;;5012419;28;20192;-74
2022/11/24 09:17:10;;;;;;;3.10;1.07;;;12.60;99.90;;;;;;5012179;28;20202;-74
2022/11/24 09:19:36;;;;;;;6.33;1.30;;;12.70;99.90;;;;;;5011315;28;20737;-73
2022/11/24 09:22:02;;;;;;;6.83;1.60;;;12.80;99.90;;;;;;5011449;28;20186;-73
2022/11/24 09:24:28;;;;;;;8.25;2.10;;;12.90;99.90;;;;;;5011754;28;20343;-73
2022/11/24 09:26:55;;;;;;;4.70;1.67;;;12.90;99.90;;;;;;5011577;28;20190;-72
2022/11/24 09:29:21;;;;;;;8.20;2.22;;;13.00;99.90;;;;;;5011907;28;20186;-73
2022/11/24 09:31:46;;;;;;;5.93;1.17;;;13.00;99.90;;;;;;5011434;28;20208;-73
2022/11/24 09:34:14;;;;;;;6.37;1.57;;;13.00;99.90;;;;;;5011634;28;20174;-73
2022/11/24 09:36:40;;;;;;;6.10;1.75;;;13.00;99.90;;;;;;5011383;28;20740;-73
2022/11/24 09:39:06;;;;;;;7.10;2.10;;;13.10;99.90;;;;;;5011649;28;20170;-73
2022/11/24 09:41:56;;;;;;;8.60;1.80;;;13.10;99.90;;;;;;5011574;28;20220;-73
2022/11/24 09:44:50;;;;;;;8.68;2.22;;;13.20;99.90;;;;;;5011517;28;20583;-72
2022/11/24 09:47:16;;;;;;;6.40;1.30;;;13.20;99.90;;;;;;5011289;28;20736;-72
2022/11/24 09:49:50;;;;;;;11.80;2.83;;;13.30;99.90;;;;;;4993747;28;20166;-72
2022/11/24 09:52:24;;;;;;;10.18;2.03;;;13.40;99.90;;;;;;5011064;28;20217;-72
2022/11/24 09:54:59;;;;;;;7.32;2.25;;;13.40;99.90;;;;;;5011236;28;20728;-73
2022/11/24 09:57:28;;;;;;;7.55;1.90;;;13.50;99.90;;;;;;4993356;28;20236;-72
2022/11/24 10:00:12;;;;;;;4.40;1.30;;;13.60;99.90;;;;;;4994082;28;20202;-73
2022/11/24 10:02:38;;;;;;;5.70;1.13;;;13.70;99.90;;;;;;5010901;28;20572;-73
2022/11/24 10:05:05;;;;;;;4.50;1.00;;;13.80;99.90;;;;;;5011046;28;20969;-72
2022/11/24 10:07:43;;;;;;;6.00;1.50;;;13.80;99.90;;;;;;5011002;28;20194;-72
2022/11/24 10:10:16;;;;;;;9.10;2.27;;;13.90;99.90;;;;;;5010925;28;21067;-73
2022/11/24 10:12:55;;;;;;;6.83;1.50;;;13.90;99.90;;;;;;4993359;28;20557;-72
2022/11/24 10:15:41;;;;;;;3.80;0.93;;;13.80;99.90;;;;;;5010867;28;20600;-72
2022/11/24 10:18:22;;;;;;;4.45;1.45;;;13.90;99.90;;;;;;4993297;28;21070;-73
2022/11/24 10:20:54;;;;;;;4.57;1.40;;;13.90;99.90;;;;;;5010798;28;20293;-72
2022/11/24 10:23:40;;;;;;;5.87;1.10;;;13.90;99.90;;;;;;4992808;28;20642;-73
2022/11/24 10:26:18;;;;;;;9.03;1.57;;;13.80;99.90;;;;;;4993023;28;20605;-72
2022/11/24 10:28:51;;;;;;;6.07;1.37;;;13.80;99.90;;;;;;5029248;28;20628;-72
2022/11/24 10:31:31;;;;;;;8.77;1.50;;;13.80;99.90;;;;;;5030058;28;20561;-72
2022/11/24 10:34:01;;;;;;;8.93;1.35;;;13.70;99.90;;;;;;5030029;28;20548;-72
2022/11/24 10:36:38;;;;;;;8.30;1.90;;;13.60;99.90;;;;;;5030342;28;20189;-72
2022/11/24 10:39:30;;;;;;;7.63;1.13;;;13.60;99.90;;;;;;5012660;28;20552;-73
2022/11/24 10:42:13;;;;;;;8.93;1.43;;;13.60;99.90;;;;;;5019284;28;20584;-73
2022/11/24 10:44:41;;;;;;;6.77;1.60;;;13.60;99.90;;;;;;5030147;28;20713;-73
2022/11/24 10:47:21;;;;;;;6.15;1.52;;;13.60;99.90;;;;;;5012756;28;20616;-73
2022/11/24 10:50:39;;;;;;;5.18;1.30;;;13.60;99.90;;;;;;5030324;28;20795;-73
2022/11/24 10:53:22;;;;;;;6.88;1.65;;;13.60;99.90;;;;;;5009045;28;20711;-72
2022/11/24 10:55:57;;;;;;;8.03;2.10;;;13.60;99.90;;;;;;5012661;28;20185;-72
2022/11/24 10:58:36;;;;;;;7.97;2.08;;;13.60;99.90;;;;;;5030217;28;20933;-72
2022/11/24 11:01:31;;;;;;;6.83;1.60;;;13.60;99.90;;;;;;5012092;28;20192;-72
2022/11/24 11:04:00;;;;;;;6.47;1.83;;;13.60;99.90;;;;;;5009739;28;21207;-72
2022/11/24 11:06:29;;;;;;;5.47;1.30;;;13.60;99.90;;;;;;5029570;28;20611;-73
2022/11/24 11:09:06;;;;;;;4.50;1.60;;;13.70;99.90;;;;;;5012253;28;21126;-73
2022/11/24 11:11:34;;;;;;;8.63;2.80;;;13.60;99.90;;;;;;5029437;28;20568;-73
2022/11/24 11:14:02;;;;;;;7.53;2.80;;;13.70;99.90;;;;;;5029912;28;21124;-73
2022/11/24 11:16:50;;;;;;;14.27;3.53;;;13.70;99.90;;;;;;5011665;28;20599;-73
2022/11/24 11:19:42;;;;;;;6.07;1.80;;;13.70;99.90;;;;;;5029597;28;20560;-73
2022/11/24 11:22:11;;;;;;;6.43;1.40;;;13.70;99.90;;;;;;5028951;28;20567;-73
2022/11/24 11:24:39;;;;;;;6.33;1.60;;;13.80;99.90;;;;;;5029347;28;20596;-73
2022/11/24 11:27:20;;;;;;;7.10;1.67;;;13.80;99.90;;;;;;5029127;28;20612;-73
2022/11/24 11:29:47;;;;;;;8.27;1.80;;;13.90;99.90;;;;;;5029529;28;20564;-73
2022/11/24 11:32:24;;;;;;;14.13;2.43;;;14.00;99.90;;;;;;5028848;28;20575;-73
2022/11/24 11:34:53;;;;;;;8.27;1.50;;;14.00;99.90;;;;;;5029437;28;20600;-73
2022/11/24 11:37:20;;;;;;;10.50;2.90;;;14.10;99.90;;;;;;5029201;28;20587;-73
2022/11/24 11:39:49;;;;;;;10.43;2.83;;;14.10;99.90;;;;;;5029490;28;20602;-73
2022/11/24 11:42:40;;;;;;;9.20;3.27;;;14.20;99.90;;;;;;5028844;28;20596;-73
2022/11/24 11:45:20;;;;;;;10.53;3.30;;;14.20;99.90;;;;;;5033295;28;20670;-73
2022/11/24 11:48:13;;;;;;;7.30;2.33;;;14.30;99.90;;;;;;5033118;28;20652;-73
2022/11/24 11:50:58;;;;;;;6.43;1.73;;;14.40;99.90;;;;;;5015839;28;20651;-73
2022/11/24 11:53:33;;;;;;;5.70;1.63;;;14.50;99.90;;;;;;5032693;28;20586;-73
2022/11/24 11:56:29;;;;;;;11.43;2.00;;;14.60;99.90;;;;;;5033228;28;20584;-72
2022/11/24 11:58:57;;;;;;;11.93;4.43;;;14.60;99.90;;;;;;4998829;28;21071;-73
2022/11/24 12:01:33;;;;;;;9.53;3.20;;;14.60;99.90;;;;;;5015366;28;20565;-73
2022/11/24 12:04:13;;;;;;;8.70;4.97;;;14.70;99.90;;;;;;5032569;28;20621;-73
2022/11/24 12:07:07;;;;;;;14.13;4.80;;;14.70;99.90;;;;;;5033005;28;20556;-73
2022/11/24 12:09:40;;;;;;;8.63;2.63;;;14.70;99.90;;;;;;5015106;28;20556;-73
2022/11/24 12:12:31;;;;;;;6.33;2.13;;;14.70;99.90;;;;;;5032531;28;20660;-73
2022/11/24 12:15:21;;;;;;;6.93;1.50;;;14.70;99.90;;;;;;5014954;28;20595;-73
2022/11/24 12:17:49;;;;;;;8.13;1.40;;;14.70;99.90;;;;;;5032795;28;20560;-73
2022/11/24 12:20:15;;;;;;;7.33;1.33;;;14.70;99.90;;;;;;5032585;28;20556;-73
2022/11/24 12:23:01;;;;;;;5.87;1.63;;;14.80;99.90;;;;;;5032385;28;20974;-73
2022/11/24 12:25:43;;;;;;;6.90;1.43;;;14.80;99.90;;;;;;5014737;28;20225;-73
2022/11/24 12:28:27;;;;;;;6.97;1.50;;;14.80;99.90;;;;;;5015001;28;20612;-73
2022/11/24 12:31:27;;;;;;;9.03;1.57;;;14.90;99.90;;;;;;5032360;28;21129;-73
2022/11/24 12:34:23;;;;;;;8.13;2.60;;;14.80;99.90;;;;;;5032079;28;20575;-73
2022/11/24 12:37:13;;;;;;;8.27;3.57;;;14.80;99.90;;;;;;5014860;28;20580;-74
2022/11/24 12:39:46;;;;;;;10.70;2.80;;;14.80;99.90;;;;;;5032242;28;20600;-73
2022/11/24 12:42:33;;;;;;;7.60;2.10;;;14.80;99.90;;;;;;5032156;28;20575;-73
2022/11/24 12:45:11;;;;;;;5.90;1.73;;;14.70;99.90;;;;;;5031880;28;20615;-73
2022/11/24 12:47:47;;;;;;;8.67;2.03;;;14.70;99.90;;;;;;5014606;28;20611;-73
2022/11/24 12:50:22;;;;;;;5.93;1.40;;;14.60;99.90;;;;;;5031890;28;20587;-73
2022/11/24 12:53:20;;;;;;;4.70;1.37;;;14.60;99.90;;;;;;5014124;28;21359;-74
2022/11/24 12:55:47;;;;;;;5.33;1.43;;;14.60;99.90;;;;;;5031778;28;20588;-74
2022/11/24 12:58:35;;;;;;;7.73;1.60;;;14.60;99.90;;;;;;5014384;28;20573;-73
2022/11/24 13:01:06;;;;;;;11.53;1.83;;;14.50;99.90;;;;;;5013922;28;20579;-73